Time;durP1;ratioP1;P1;durP2;ratioP2;P2;SDS_P1;SDS_P2;PMS_P1;PMS_P2;Temp;Humidity;BMP_temperature;BMP_pressure;BME280_temperature;BME280_humidity;BME280_pressure;Samples;Min_cycle;Max_cycle;Signal;HPM_P1;HPM_P2
2023/10/14 00:02:21;;;;;;;;;;;19.80;74.80;;;;;;5047007;28;19913;-95
2023/10/14 00:04:46;;;;;;;;;;;19.80;75.20;;;;;;5013108;28;19988;-92
2023/10/14 00:07:17;;;;;;;;;;;19.80;75.30;;;;;;5017917;28;19908;-92
2023/10/14 00:09:43;;;;;;;;;;;19.80;75.50;;;;;;5015860;28;19948;-92
2023/10/14 00:12:13;;;;;;;;;;;19.80;75.80;;;;;;5027737;28;19972;-89
2023/10/14 00:14:53;;;;;;;;;;;19.80;75.60;;;;;;5022569;28;20562;-91
2023/10/14 00:17:18;;;;;;;;;;;19.70;75.70;;;;;;5021240;28;19956;-91
2023/10/14 00:19:53;;;;;;;;;;;19.70;76.30;;;;;;5025972;28;19952;-94
2023/10/14 00:22:19;;;;;;;;;;;19.60;76.40;;;;;;5025478;28;19913;-92
2023/10/14 00:24:48;;;;;;;;;;;19.70;76.60;;;;;;5017959;28;19925;-92
2023/10/14 00:27:14;;;;;;;;;;;19.70;76.70;;;;;;5024682;28;19920;-95
2023/10/14 00:29:41;;;;;;;;;;;19.70;77.40;;;;;;5024824;28;19912;-93
2023/10/14 00:32:07;;;;;;;;;;;19.70;78.20;;;;;;5018872;28;19920;-90
2023/10/14 00:34:33;;;;;;;;;;;19.60;78.70;;;;;;5018251;28;19909;-89
2023/10/14 00:36:58;;;;;;;;;;;19.60;79.20;;;;;;5016732;28;19916;-89
2023/10/14 00:39:26;;;;;;;;;;;19.60;79.20;;;;;;5024476;28;19919;-91
2023/10/14 00:41:52;;;;;;;;;;;19.70;79.20;;;;;;5014225;28;19913;-91
2023/10/14 00:44:18;;;;;;;;;;;19.60;79.50;;;;;;5024608;28;20324;-90
2023/10/14 00:46:50;;;;;;;;;;;19.60;79.40;;;;;;5019261;28;19916;-89
2023/10/14 00:49:21;;;;;;;;;;;19.50;80.00;;;;;;5021663;28;19917;-87
2023/10/14 00:51:49;;;;;;;;;;;19.70;79.50;;;;;;5019666;28;19920;-90
2023/10/14 00:54:27;;;;;;;;;;;19.50;79.70;;;;;;5021121;28;19913;-91
2023/10/14 00:56:53;;;;;;;;;;;19.60;79.70;;;;;;5021643;28;19925;-91
2023/10/14 00:59:19;;;;;;;;;;;19.50;80.10;;;;;;5023403;28;19913;-92
2023/10/14 01:01:58;;;;;;;;;;;19.60;79.90;;;;;;5023040;28;19913;-90
2023/10/14 01:04:32;;;;;;;;;;;19.50;79.80;;;;;;5016212;28;19917;-91
2023/10/14 01:09:41;;;;;;;;;;;19.50;80.50;;;;;;5023323;28;19913;-90
2023/10/14 01:12:16;;;;;;;;;;;19.30;81.20;;;;;;5022540;28;20024;-89
2023/10/14 01:14:54;;;;;;;;;;;19.30;81.80;;;;;;5023695;28;19975;-90
2023/10/14 01:17:29;;;;;;;;;;;19.20;82.90;;;;;;5021559;28;19967;-92
2023/10/14 01:20:00;;;;;;;;;;;19.00;85.00;;;;;;5023204;28;20498;-91
2023/10/14 01:22:29;;;;;;;;;;;18.90;86.40;;;;;;5022948;28;20279;-89
2023/10/14 01:24:55;;;;;;;;;;;18.90;87.40;;;;;;5023453;28;19917;-90
2023/10/14 01:27:21;;;;;;;;;;;19.00;86.80;;;;;;5023402;28;19974;-90
2023/10/14 01:29:50;;;;;;;;;;;19.00;86.60;;;;;;5020635;28;19913;-92
2023/10/14 01:32:24;;;;;;;;;;;19.00;86.90;;;;;;5018895;28;20321;-89
2023/10/14 01:34:55;;;;;;;;;;;18.90;87.80;;;;;;5021325;28;19917;-87
2023/10/14 01:37:21;;;;;;;;;;;18.80;88.80;;;;;;5019335;28;19952;-88
2023/10/14 01:39:56;;;;;;;;;;;18.70;90.10;;;;;;5022455;28;20023;-89
2023/10/14 01:42:22;;;;;;;;;;;18.80;90.00;;;;;;5024104;28;19917;-87
2023/10/14 01:44:53;;;;;;;;;;;18.80;90.20;;;;;;5025058;28;19924;-88
2023/10/14 01:47:25;;;;;;;;;;;18.80;90.60;;;;;;5025516;28;19924;-87
2023/10/14 01:49:51;;;;;;;;;;;19.00;90.20;;;;;;5025972;28;19924;-86
2023/10/14 01:52:19;;;;;;;;;;;19.00;90.00;;;;;;5017150;28;19920;-88
2023/10/14 01:54:47;;;;;;;;;;;19.10;90.00;;;;;;5026798;28;19920;-88
2023/10/14 01:57:17;;;;;;;;;;;19.10;89.90;;;;;;5023358;28;19921;-90
2023/10/14 01:59:46;;;;;;;;;;;19.00;89.80;;;;;;5025440;28;20011;-91
2023/10/14 02:02:15;;;;;;;;;;;19.00;90.10;;;;;;5027477;28;19968;-92
2023/10/14 02:04:45;;;;;;;;;;;19.00;90.20;;;;;;5013055;28;19920;-91
2023/10/14 02:07:19;;;;;;;;;;;19.10;90.10;;;;;;5028096;28;19913;-90
2023/10/14 02:09:45;;;;;;;;;;;18.90;90.50;;;;;;5029805;28;19913;-93
2023/10/14 02:12:12;;;;;;;;;;;18.80;91.10;;;;;;5049348;28;20176;-89
2023/10/14 02:14:44;;;;;;;;;;;18.80;90.80;;;;;;5040031;28;19913;-88
2023/10/14 02:17:10;;;;;;;;;;;18.80;90.90;;;;;;5019167;28;20554;-92
2023/10/14 02:22:01;;;;;;;;;;;19.00;90.50;;;;;;5026657;28;19915;-90
2023/10/14 02:24:30;;;;;;;;;;;18.90;90.50;;;;;;5027435;28;19977;-90
2023/10/14 02:26:57;;;;;;;;;;;18.90;90.90;;;;;;5019513;28;20395;-93
2023/10/14 02:29:24;;;;;;;;;;;18.90;90.90;;;;;;5032191;28;20039;-91
2023/10/14 02:31:50;;;;;;;;;;;18.90;90.80;;;;;;5019052;28;19914;-90
2023/10/14 02:34:15;;;;;;;;;;;18.80;90.80;;;;;;5027887;28;19919;-90
2023/10/14 02:36:50;;;;;;;;;;;18.90;90.80;;;;;;5028259;28;19913;-90
2023/10/14 02:39:25;;;;;;;;;;;18.90;90.80;;;;;;5017026;28;19935;-88
2023/10/14 02:42:06;;;;;;;;;;;18.80;90.90;;;;;;5025732;28;19913;-90
2023/10/14 02:44:33;;;;;;;;;;;18.80;91.10;;;;;;5021141;28;19917;-94
2023/10/14 02:47:05;;;;;;;;;;;18.80;91.30;;;;;;5016877;28;20372;-96
2023/10/14 02:49:37;;;;;;;;;;;18.80;91.30;;;;;;5018696;28;19917;-92
2023/10/14 02:52:12;;;;;;;;;;;18.80;91.40;;;;;;5018353;28;19913;-94
2023/10/14 02:54:40;;;;;;;;;;;18.70;91.50;;;;;;5027777;28;19913;-94
2023/10/14 02:59:51;;;;;;;;;;;18.60;92.10;;;;;;5028411;28;20383;-91
2023/10/14 03:02:25;;;;;;;;;;;18.60;92.40;;;;;;5030360;28;19931;-91
2023/10/14 03:07:27;;;;;;;;;;;18.50;92.90;;;;;;5023037;28;19980;-91
2023/10/14 03:09:54;;;;;;;;;;;18.50;93.20;;;;;;5024447;28;19913;-93
2023/10/14 03:12:21;;;;;;;;;;;18.60;93.10;;;;;;5024997;28;19924;-93
2023/10/14 03:14:52;;;;;;;;;;;18.60;93.10;;;;;;5025437;28;19921;-91
2023/10/14 03:17:25;;;;;;;;;;;18.60;93.20;;;;;;5024817;28;19909;-91
2023/10/14 03:19:53;;;;;;;;;;;18.60;93.30;;;;;;5027738;28;19920;-92
2023/10/14 03:22:22;;;;;;;;;;;18.60;93.20;;;;;;5043803;28;20003;-91
2023/10/14 03:24:50;;;;;;;;;;;18.70;93.20;;;;;;5025555;28;19917;-90
2023/10/14 03:27:16;;;;;;;;;;;18.70;93.30;;;;;;5024833;28;19936;-87
2023/10/14 03:29:46;;;;;;;;;;;18.60;93.40;;;;;;5024589;28;20494;-89
2023/10/14 03:32:11;;;;;;;;;;;18.60;93.80;;;;;;5025232;28;20003;-92
2023/10/14 03:34:41;;;;;;;;;;;18.60;93.70;;;;;;5025620;28;20029;-91
2023/10/14 03:37:20;;;;;;;;;;;18.50;94.00;;;;;;5024420;28;19919;-91
2023/10/14 03:39:51;;;;;;;;;;;18.40;94.40;;;;;;5016890;28;19917;-89
2023/10/14 03:42:17;;;;;;;;;;;18.50;94.50;;;;;;5024530;28;19913;-92
2023/10/14 03:44:43;;;;;;;;;;;18.50;94.60;;;;;;5024752;28;19923;-90
2023/10/14 03:47:14;;;;;;;;;;;18.50;94.60;;;;;;5024317;28;19917;-91
2023/10/14 03:49:41;;;;;;;;;;;18.50;94.80;;;;;;5024454;28;20380;-90
2023/10/14 03:52:11;;;;;;;;;;;18.50;95.00;;;;;;5024251;28;19908;-89
2023/10/14 03:54:44;;;;;;;;;;;18.40;95.10;;;;;;5022451;28;19909;-88
2023/10/14 03:57:17;;;;;;;;;;;18.40;95.40;;;;;;5027154;28;20547;-91
2023/10/14 03:59:46;;;;;;;;;;;18.40;95.70;;;;;;5023970;28;20232;-93
2023/10/14 04:02:15;;;;;;;;;;;18.40;95.90;;;;;;5016386;28;19909;-87
2023/10/14 04:04:42;;;;;;;;;;;18.40;95.90;;;;;;5017085;28;19913;-90
2023/10/14 04:09:38;;;;;;;;;;;18.30;96.20;;;;;;5018120;28;19975;-88
2023/10/14 04:12:27;;;;;;;;;;;18.30;96.60;;;;;;5012739;28;19916;-89
2023/10/14 04:14:54;;;;;;;;;;;18.30;96.50;;;;;;5013356;28;19909;-89
2023/10/14 04:17:21;;;;;;;;;;;18.30;96.80;;;;;;5020551;28;19913;-88
2023/10/14 04:19:47;;;;;;;;;;;18.30;96.80;;;;;;5015293;28;20003;-90
2023/10/14 04:24:51;;;;;;;;;;;18.30;97.20;;;;;;5016338;28;19992;-88
2023/10/14 04:27:17;;;;;;;;;;;18.30;97.40;;;;;;5015874;28;19913;-90
2023/10/14 04:30:03;;;;;;;;;;;18.40;97.20;;;;;;5025089;28;20015;-90
2023/10/14 04:32:40;;;;;;;;;;;18.30;97.40;;;;;;5018533;28;19913;-90
2023/10/14 04:35:06;;;;;;;;;;;18.30;97.70;;;;;;5027983;28;19999;-89
2023/10/14 04:37:50;;;;;;;;;;;18.30;98.10;;;;;;5030601;28;20534;-92
2023/10/14 04:40:36;;;;;;;;;;;18.20;98.10;;;;;;5025709;28;20553;-89
2023/10/14 04:43:18;;;;;;;;;;;18.10;98.60;;;;;;5026586;28;19917;-93
2023/10/14 04:48:59;;;;;;;;;;;18.20;99.10;;;;;;5019336;28;20439;-89
2023/10/14 04:51:30;;;;;;;;;;;18.20;99.30;;;;;;5019956;28;20266;-88
2023/10/14 04:54:00;;;;;;;;;;;18.20;99.40;;;;;;5023833;28;19913;-87
2023/10/14 04:56:31;;;;;;;;;;;18.20;99.40;;;;;;5031832;28;19933;-89
2023/10/14 04:58:57;;;;;;;;;;;18.20;99.80;;;;;;5028000;28;20279;-89
2023/10/14 05:01:24;;;;;;;;;;;18.10;99.90;;;;;;5024817;28;19916;-90
2023/10/14 05:03:55;;;;;;;;;;;18.10;99.90;;;;;;5029529;28;19956;-91
2023/10/14 05:06:21;;;;;;;;;;;18.20;99.90;;;;;;5026320;28;19917;-91
2023/10/14 05:08:54;;;;;;;;;;;18.10;99.90;;;;;;5028347;28;19915;-90
2023/10/14 05:11:22;;;;;;;;;;;18.10;99.90;;;;;;5034275;28;19913;-91
2023/10/14 05:16:56;;;;;;;;;;;18.20;99.90;;;;;;5025195;28;19913;-92
2023/10/14 05:19:30;;;;;;;;;;;18.00;99.90;;;;;;5048401;28;19914;-92
2023/10/14 05:22:10;;;;;;;;;;;18.10;99.90;;;;;;5028580;28;20382;-88
2023/10/14 05:24:36;;;;;;;;;;;18.10;99.90;;;;;;5028069;28;19917;-89
2023/10/14 05:27:02;;;;;;;;;;;18.00;99.90;;;;;;5016276;28;19932;-92
2023/10/14 05:29:30;;;;;;;;;;;18.10;99.90;;;;;;5024313;28;19939;-89
2023/10/14 05:32:15;;;;;;;;;;;18.00;99.90;;;;;;5029267;28;19912;-91
2023/10/14 05:34:43;;;;;;;;;;;18.00;99.90;;;;;;5032858;28;19909;-91
2023/10/14 05:37:11;;;;;;;;;;;18.00;99.90;;;;;;5033027;28;19916;-92
2023/10/14 05:39:42;;;;;;;;;;;18.00;99.90;;;;;;5031404;28;19920;-88
2023/10/14 05:42:15;;;;;;;;;;;17.90;99.90;;;;;;5029008;28;19984;-88
2023/10/14 05:44:46;;;;;;;;;;;17.90;99.90;;;;;;5031009;28;19917;-91
2023/10/14 05:47:12;;;;;;;;;;;17.90;99.90;;;;;;5031233;28;19913;-90
2023/10/14 05:49:38;;;;;;;;;;;17.90;99.90;;;;;;5032437;28;19913;-92
2023/10/14 05:52:03;;;;;;;;;;;17.80;99.90;;;;;;5031764;28;19963;-92
2023/10/14 05:54:29;;;;;;;;;;;17.90;99.90;;;;;;5032329;28;20601;-91
2023/10/14 05:56:55;;;;;;;;;;;17.70;99.90;;;;;;5019033;28;20047;-91
2023/10/14 05:59:20;;;;;;;;;;;17.90;99.90;;;;;;5033635;28;19912;-94
2023/10/14 06:01:46;;;;;;;;;;;17.90;99.90;;;;;;5030151;28;19921;-93
2023/10/14 06:04:14;;;;;;;;;;;17.90;99.90;;;;;;5029861;28;19978;-92
2023/10/14 06:06:40;;;;;;;;;;;18.00;99.90;;;;;;5021638;28;19913;-88
2023/10/14 06:09:09;;;;;;;;;;;18.00;99.90;;;;;;5027724;28;19917;-88
2023/10/14 06:11:35;;;;;;;;;;;18.00;99.90;;;;;;5029359;28;20600;-88
2023/10/14 06:14:03;;;;;;;;;;;18.00;99.90;;;;;;5030546;28;19912;-86
2023/10/14 06:16:32;;;;;;;;;;;17.80;99.90;;;;;;5028492;28;19917;-90
2023/10/14 06:18:57;;;;;;;;;;;17.70;99.90;;;;;;5026038;28;20380;-89
2023/10/14 06:21:27;;;;;;;;;;;17.80;99.90;;;;;;5026822;28;19927;-89
2023/10/14 06:23:55;;;;;;;;;;;17.90;99.90;;;;;;5033643;28;20445;-89
2023/10/14 06:26:21;;;;;;;;;;;17.90;99.90;;;;;;5036470;28;19920;-88
2023/10/14 06:28:48;;;;;;;;;;;17.90;99.90;;;;;;5030431;28;19913;-89
2023/10/14 06:31:13;;;;;;;;;;;17.90;99.90;;;;;;5029285;28;20012;-85
2023/10/14 06:33:43;;;;;;;;;;;17.60;99.90;;;;;;5029822;28;19992;-88
2023/10/14 06:36:13;;;;;;;;;;;17.70;99.90;;;;;;5030819;28;20000;-86
2023/10/14 06:38:44;;;;;;;;;;;17.90;99.90;;;;;;5029746;28;19909;-88
2023/10/14 06:41:11;;;;;;;;;;;17.40;99.90;;;;;;5022355;28;19917;-86
2023/10/14 06:43:38;;;;;;;;;;;17.30;99.90;;;;;;5031758;28;20380;-87
2023/10/14 06:46:04;;;;;;;;;;;17.40;99.90;;;;;;5031258;28;20017;-86
2023/10/14 06:48:30;;;;;;;;;;;17.30;99.90;;;;;;5029647;28;20391;-87
2023/10/14 06:50:56;;;;;;;;;;;17.20;99.90;;;;;;5026754;28;20020;-86
2023/10/14 06:53:21;;;;;;;;;;;17.20;99.90;;;;;;5027884;28;20012;-88
2023/10/14 06:55:49;;;;;;;;;;;17.20;99.90;;;;;;5028234;28;20020;-87
2023/10/14 06:58:21;;;;;;;;;;;17.30;99.90;;;;;;5018799;28;19928;-87
2023/10/14 07:00:48;;;;;;;;;;;17.40;99.90;;;;;;5028685;28;19913;-87
2023/10/14 07:03:14;;;;;;;;;;;17.30;99.90;;;;;;5027699;28;19913;-87
2023/10/14 07:08:21;;;;;;;;;;;17.40;99.90;;;;;;5032845;28;19917;-88
2023/10/14 07:10:50;;;;;;;;;;;17.50;99.90;;;;;;5039415;28;19908;-88
2023/10/14 07:13:19;;;;;;;;;;;17.30;99.90;;;;;;5031149;28;20007;-89
2023/10/14 07:15:44;;;;;;;;;;;17.10;99.90;;;;;;5026538;28;19909;-86
2023/10/14 07:18:13;;;;;;;;;;;17.40;99.90;;;;;;5018564;28;19920;-88
2023/10/14 07:20:39;;;;;;;;;;;17.70;99.90;;;;;;5024119;28;20012;-87
2023/10/14 07:23:06;;;;;;;;;;;17.70;99.90;;;;;;5024132;28;19916;-89
2023/10/14 07:25:34;;;;;;;;;;;17.90;99.90;;;;;;5023911;28;20390;-89
2023/10/14 07:28:00;;;;;;;;;;;18.10;99.90;;;;;;5024191;28;19943;-87
2023/10/14 07:30:27;;;;;;;;;;;17.90;99.90;;;;;;5024480;28;19913;-87
2023/10/14 07:32:54;;;;;;;;;;;18.10;99.90;;;;;;5023605;28;19917;-87
2023/10/14 07:35:19;;;;;;;;;;;17.80;99.90;;;;;;5023293;28;19935;-88
2023/10/14 07:37:45;;;;;;;;;;;18.00;99.90;;;;;;5026007;28;20369;-88
2023/10/14 07:40:12;;;;;;;;;;;18.10;99.90;;;;;;5025144;28;20686;-89
2023/10/14 07:42:38;;;;;;;;;;;18.30;99.90;;;;;;5022027;28;20012;-90
2023/10/14 07:45:05;;;;;;;;;;;18.30;99.90;;;;;;5020603;28;19917;-92
2023/10/14 07:47:30;;;;;;;;;;;18.10;99.90;;;;;;5022549;28;20024;-89
2023/10/14 07:49:57;;;;;;;;;;;17.90;99.90;;;;;;5024009;28;20775;-90
2023/10/14 07:52:23;;;;;;;;;;;18.00;99.90;;;;;;5018604;28;19921;-90
2023/10/14 07:54:51;;;;;;;;;;;18.10;99.90;;;;;;5022716;28;19913;-89
2023/10/14 07:57:17;;;;;;;;;;;18.00;99.90;;;;;;5017131;28;20288;-89
2023/10/14 07:59:43;;;;;;;;;;;18.00;99.90;;;;;;5021427;28;19913;-89
2023/10/14 08:02:10;;;;;;;;;;;18.00;99.90;;;;;;5017234;28;20261;-89
2023/10/14 08:04:35;;;;;;;;;;;18.10;99.90;;;;;;5020033;28;20098;-90
2023/10/14 08:07:05;;;;;;;;;;;18.50;99.90;;;;;;5019511;28;19992;-89
2023/10/14 08:09:32;;;;;;;;;;;18.50;99.90;;;;;;5019026;28;19996;-88
2023/10/14 08:11:59;;;;;;;;;;;18.60;99.90;;;;;;5034907;28;19917;-91
2023/10/14 08:14:24;;;;;;;;;;;18.90;99.70;;;;;;5020177;28;19920;-89
2023/10/14 08:16:50;;;;;;;;;;;18.90;99.00;;;;;;5014973;28;19910;-90
2023/10/14 08:19:21;;;;;;;;;;;18.70;99.00;;;;;;5020493;28;20019;-86
2023/10/14 08:21:50;;;;;;;;;;;18.60;98.60;;;;;;5018714;28;19921;-86
2023/10/14 08:24:18;;;;;;;;;;;18.40;98.80;;;;;;5018946;28;19928;-86
2023/10/14 08:26:43;;;;;;;;;;;18.20;99.60;;;;;;5020508;28;19945;-85
2023/10/14 08:29:12;;;;;;;;;;;18.20;99.70;;;;;;5023479;28;19913;-86
2023/10/14 08:31:37;;;;;;;;;;;18.40;99.00;;;;;;5021432;28;19952;-84
2023/10/14 08:34:06;;;;;;;;;;;18.30;99.30;;;;;;5018520;28;19940;-85
2023/10/14 08:36:32;;;;;;;;;;;18.40;98.90;;;;;;5023165;28;20292;-84
2023/10/14 08:38:58;;;;;;;;;;;18.40;99.00;;;;;;5020453;28;19913;-85
2023/10/14 08:41:25;;;;;;;;;;;18.50;98.50;;;;;;5022048;28;19997;-86
2023/10/14 08:43:56;;;;;;;;;;;18.50;98.70;;;;;;5017947;28;19928;-85
2023/10/14 08:46:23;;;;;;;;;;;18.70;98.20;;;;;;5018492;28;20441;-86
2023/10/14 08:48:51;;;;;;;;;;;19.10;98.00;;;;;;5024191;28;19921;-85
2023/10/14 08:51:17;;;;;;;;;;;19.40;96.90;;;;;;5020280;28;20038;-87
2023/10/14 08:53:45;;;;;;;;;;;19.70;96.30;;;;;;5021491;28;19913;-88
2023/10/14 08:56:12;;;;;;;;;;;20.00;95.50;;;;;;5026108;28;19913;-86
2023/10/14 08:58:38;;;;;;;;;;;20.30;95.10;;;;;;5027596;28;19948;-87
2023/10/14 09:01:06;;;;;;;;;;;20.10;94.90;;;;;;5029121;28;19963;-86
2023/10/14 09:03:31;;;;;;;;;;;19.80;95.30;;;;;;5029018;28;19928;-85
2023/10/14 09:05:57;;;;;;;;;;;19.30;95.80;;;;;;5029049;28;19912;-85
2023/10/14 09:08:24;;;;;;;;;;;19.10;96.00;;;;;;5027633;28;20284;-85
2023/10/14 09:10:50;;;;;;;;;;;19.10;96.10;;;;;;5026951;28;19924;-86
2023/10/14 09:13:22;;;;;;;;;;;19.10;95.90;;;;;;5029280;28;19912;-86
2023/10/14 09:15:48;;;;;;;;;;;19.10;95.70;;;;;;5029265;28;19913;-88
2023/10/14 09:18:16;;;;;;;;;;;19.10;95.60;;;;;;5024960;28;20004;-87
2023/10/14 09:20:42;;;;;;;;;;;19.40;94.90;;;;;;5029435;28;19921;-88
2023/10/14 09:23:14;;;;;;;;;;;19.50;94.30;;;;;;5026723;28;19921;-89
2023/10/14 09:25:50;;;;;;;;;;;20.60;94.30;;;;;;5019300;28;19991;-88
2023/10/14 09:28:17;;;;;;;;;;;22.70;90.10;;;;;;5028923;28;19988;-88
2023/10/14 09:30:45;;;;;;;;;;;21.30;91.40;;;;;;5029926;28;19972;-88
2023/10/14 09:33:12;;;;;;;;;;;20.50;92.90;;;;;;5028347;28;19923;-89
2023/10/14 09:35:41;;;;;;;;;;;20.30;92.70;;;;;;5027916;28;20024;-86
2023/10/14 09:38:08;;;;;;;;;;;20.50;92.70;;;;;;5030658;28;19924;-86
2023/10/14 09:40:35;;;;;;;;;;;20.90;92.20;;;;;;5029378;28;19920;-87
2023/10/14 09:43:02;;;;;;;;;;;21.20;91.20;;;;;;5029909;28;19943;-89
2023/10/14 09:45:27;;;;;;;;;;;21.60;91.00;;;;;;5029954;28;19925;-89
2023/10/14 09:47:57;;;;;;;;;;;22.00;89.80;;;;;;5030747;28;19963;-88
2023/10/14 09:50:24;;;;;;;;;;;22.40;87.30;;;;;;5023373;28;19917;-88
2023/10/14 09:52:52;;;;;;;;;;;23.10;86.90;;;;;;5028736;28;19928;-87
2023/10/14 09:55:19;;;;;;;;;;;23.70;84.10;;;;;;5029799;28;19971;-87
2023/10/14 09:57:45;;;;;;;;;;;22.90;84.40;;;;;;5027885;28;20296;-88
2023/10/14 10:00:11;;;;;;;;;;;21.70;87.50;;;;;;5019980;28;19921;-85
2023/10/14 10:02:43;;;;;;;;;;;21.40;89.50;;;;;;5026120;28;20095;-86
2023/10/14 10:05:12;;;;;;;;;;;21.30;88.00;;;;;;5025915;28;19921;-85
2023/10/14 10:07:41;;;;;;;;;;;21.20;89.10;;;;;;5023716;28;19917;-85
2023/10/14 10:10:18;;;;;;;;;;;21.60;89.40;;;;;;5024219;28;19983;-85
2023/10/14 10:12:45;;;;;;;;;;;21.70;88.10;;;;;;5024895;28;19909;-85
2023/10/14 10:15:19;;;;;;;;;;;21.50;88.60;;;;;;5024437;28;19924;-85
2023/10/14 10:17:53;;;;;;;;;;;21.90;86.90;;;;;;5024924;28;19919;-85
2023/10/14 10:20:26;;;;;;;;;;;22.60;87.10;;;;;;5021170;28;19919;-85
2023/10/14 10:22:52;;;;;;;;;;;23.60;84.60;;;;;;5023837;28;20008;-86
2023/10/14 10:25:20;;;;;;;;;;;23.90;82.60;;;;;;5024725;28;20336;-85
2023/10/14 10:27:55;;;;;;;;;;;23.90;82.30;;;;;;5023708;28;19999;-85
2023/10/14 10:30:21;;;;;;;;;;;23.90;82.40;;;;;;5025002;28;19924;-85
2023/10/14 10:32:50;;;;;;;;;;;23.00;82.10;;;;;;5023194;28;19917;-86
2023/10/14 10:35:20;;;;;;;;;;;21.90;83.80;;;;;;5023524;28;20372;-84
2023/10/14 10:37:46;;;;;;;;;;;21.00;87.10;;;;;;5024351;28;19921;-85
2023/10/14 10:40:13;;;;;;;;;;;20.50;88.70;;;;;;5024178;28;19920;-85
2023/10/14 10:42:41;;;;;;;;;;;20.40;89.70;;;;;;5023838;28;19909;-83
2023/10/14 10:45:20;;;;;;;;;;;20.30;89.80;;;;;;5022917;28;19921;-87
2023/10/14 10:47:52;;;;;;;;;;;20.30;89.30;;;;;;5024692;28;19913;-87
2023/10/14 10:50:18;;;;;;;;;;;20.60;89.10;;;;;;5047587;28;19953;-88
2023/10/14 10:52:51;;;;;;;;;;;20.60;87.20;;;;;;5026449;28;19913;-89
2023/10/14 10:55:17;;;;;;;;;;;21.00;87.80;;;;;;5024905;28;19919;-88
2023/10/14 10:57:44;;;;;;;;;;;21.20;86.50;;;;;;5026595;28;19913;-89
2023/10/14 11:00:10;;;;;;;;;;;21.30;86.20;;;;;;5026557;28;20037;-89
2023/10/14 11:02:35;;;;;;;;;;;21.40;86.60;;;;;;5026608;28;19920;-89
2023/10/14 11:05:03;;;;;;;;;;;21.60;86.10;;;;;;5027749;28;19925;-89
2023/10/14 11:07:28;;;;;;;;;;;22.10;87.40;;;;;;5030900;28;19913;-90
2023/10/14 11:09:54;;;;;;;;;;;22.70;83.70;;;;;;5029572;28;19998;-89
2023/10/14 11:12:19;;;;;;;;;;;22.50;82.90;;;;;;5025259;28;20597;-90
2023/10/14 11:14:48;;;;;;;;;;;22.30;82.00;;;;;;5025321;28;19909;-91
2023/10/14 11:17:14;;;;;;;;;;;21.80;83.90;;;;;;5025510;28;20003;-89
2023/10/14 11:19:39;;;;;;;;;;;22.10;83.70;;;;;;5029868;28;19995;-89
2023/10/14 11:22:06;;;;;;;;;;;21.70;81.40;;;;;;5022834;28;19992;-90
2023/10/14 11:24:32;;;;;;;;;;;21.80;82.90;;;;;;5022168;28;20376;-90
2023/10/14 11:26:59;;;;;;;;;;;21.70;83.10;;;;;;5025813;28;19927;-91
2023/10/14 11:29:25;;;;;;;;;;;22.00;82.30;;;;;;5028384;28;19909;-90
2023/10/14 11:31:54;;;;;;;;;;;22.00;79.80;;;;;;5026726;28;19913;-90
2023/10/14 11:34:20;;;;;;;;;;;22.20;79.40;;;;;;5027721;28;20325;-90
2023/10/14 11:36:48;;;;;;;;;;;22.10;77.20;;;;;;5027314;28;20412;-91
2023/10/14 11:39:18;;;;;;;;;;;22.00;77.40;;;;;;5037506;28;19909;-89
2023/10/14 11:41:50;;;;;;;;;;;22.20;77.50;;;;;;5015405;28;20353;-90
2023/10/14 11:44:19;;;;;;;;;;;22.50;77.80;;;;;;5020978;28;19921;-88
2023/10/14 11:46:45;;;;;;;;;;;22.20;74.90;;;;;;5024128;28;20049;-89
2023/10/14 11:49:11;;;;;;;;;;;22.10;78.50;;;;;;5040532;28;19963;-88
2023/10/14 11:51:43;;;;;;;;;;;22.40;77.80;;;;;;5011665;28;20011;-91
2023/10/14 11:54:12;;;;;;;;;;;22.40;76.00;;;;;;5020498;28;19916;-84
2023/10/14 11:56:41;;;;;;;;;;;22.60;75.80;;;;;;5023654;28;19913;-89
2023/10/14 11:59:09;;;;;;;;;;;22.80;79.30;;;;;;5008347;28;19932;-86
2023/10/14 12:01:35;;;;;;;;;;;22.30;77.10;;;;;;5022351;28;19944;-83
2023/10/14 12:04:01;;;;;;;;;;;21.90;77.10;;;;;;5018812;28;20605;-86
2023/10/14 12:06:29;;;;;;;;;;;21.30;78.40;;;;;;5021048;28;19913;-86
2023/10/14 12:08:55;;;;;;;;;;;20.90;79.90;;;;;;5021736;28;19913;-85
2023/10/14 12:11:21;;;;;;;;;;;20.70;80.50;;;;;;5014567;28;19962;-85
2023/10/14 12:13:48;;;;;;;;;;;21.00;79.60;;;;;;5023230;28;20012;-86
2023/10/14 12:16:14;;;;;;;;;;;21.00;77.30;;;;;;5016645;28;19920;-86
2023/10/14 12:18:41;;;;;;;;;;;21.00;79.30;;;;;;5025354;28;19909;-86
2023/10/14 12:21:07;;;;;;;;;;;21.00;79.00;;;;;;5017765;28;19948;-87
2023/10/14 12:23:33;;;;;;;;;;;21.10;78.90;;;;;;5017227;28;19960;-87
2023/10/14 12:26:00;;;;;;;;;;;21.10;78.90;;;;;;5014034;28;20371;-86
2023/10/14 12:28:26;;;;;;;;;;;21.10;78.20;;;;;;5021250;28;20355;-87
2023/10/14 12:30:52;;;;;;;;;;;21.10;78.60;;;;;;5022107;28;19919;-87
2023/10/14 12:33:22;;;;;;;;;;;21.30;77.20;;;;;;5022250;28;19913;-86
2023/10/14 12:35:51;;;;;;;;;;;21.70;76.30;;;;;;5016082;28;19913;-85
2023/10/14 12:38:20;;;;;;;;;;;21.80;76.30;;;;;;5015970;28;19920;-86
2023/10/14 12:40:48;;;;;;;;;;;22.00;76.50;;;;;;5019956;28;19935;-85
2023/10/14 12:43:15;;;;;;;;;;;22.30;74.50;;;;;;5005568;28;20051;-86
2023/10/14 12:45:42;;;;;;;;;;;22.20;75.70;;;;;;5022807;28;19913;-85
2023/10/14 12:48:10;;;;;;;;;;;22.00;75.90;;;;;;5012176;28;19925;-89
2023/10/14 12:50:46;;;;;;;;;;;21.70;76.10;;;;;;5014213;28;19919;-88
2023/10/14 12:53:12;;;;;;;;;;;21.70;75.90;;;;;;5022356;28;20391;-88
2023/10/14 12:55:44;;;;;;;;;;;21.80;76.00;;;;;;5023000;28;19912;-88
2023/10/14 12:58:12;;;;;;;;;;;21.40;75.10;;;;;;5052583;28;20032;-88
2023/10/14 13:00:38;;;;;;;;;;;21.00;76.50;;;;;;5022886;28;20093;-88
2023/10/14 13:03:09;;;;;;;;;;;21.10;77.80;;;;;;5014583;28;19916;-87
2023/10/14 13:05:35;;;;;;;;;;;21.00;75.70;;;;;;5015580;28;20011;-89
2023/10/14 13:08:02;;;;;;;;;;;21.10;76.60;;;;;;5022294;28;20372;-88
2023/10/14 13:10:28;;;;;;;;;;;21.00;75.60;;;;;;5023360;28;19909;-88
2023/10/14 13:12:57;;;;;;;;;;;21.00;75.20;;;;;;5023274;28;19937;-88
2023/10/14 13:15:30;;;;;;;;;;;20.90;76.00;;;;;;5019500;28;20343;-87
2023/10/14 13:17:57;;;;;;;;;;;20.50;76.70;;;;;;5015193;28;19917;-88
2023/10/14 13:20:32;;;;;;;;;;;20.30;77.50;;;;;;5025881;28;19991;-89
2023/10/14 13:22:59;;;;;;;;;;;20.10;78.50;;;;;;5021675;28;19963;-90
2023/10/14 13:25:25;;;;;;;;;;;20.00;79.40;;;;;;5021613;28;19928;-87
2023/10/14 13:27:51;;;;;;;;;;;19.90;79.70;;;;;;5016347;28;19936;-89
2023/10/14 13:30:24;;;;;;;;;;;19.90;80.60;;;;;;5022874;28;19920;-89
2023/10/14 13:32:53;;;;;;;;;;;19.80;80.10;;;;;;5020820;28;19917;-87
2023/10/14 13:35:19;;;;;;;;;;;19.60;80.80;;;;;;5023852;28;20471;-89
2023/10/14 13:37:44;;;;;;;;;;;19.50;81.80;;;;;;5025998;28;19970;-90
2023/10/14 13:40:10;;;;;;;;;;;19.40;81.40;;;;;;5024105;28;20047;-89
2023/10/14 13:42:36;;;;;;;;;;;19.50;81.50;;;;;;5019909;28;19920;-88
2023/10/14 13:45:04;;;;;;;;;;;19.50;82.30;;;;;;5024842;28;19924;-88
2023/10/14 13:47:30;;;;;;;;;;;19.50;81.30;;;;;;5054436;28;19916;-89
2023/10/14 13:49:58;;;;;;;;;;;19.60;81.70;;;;;;5025695;28;19978;-89
2023/10/14 13:52:23;;;;;;;;;;;19.90;80.90;;;;;;5024133;28;20022;-88
2023/10/14 13:54:49;;;;;;;;;;;20.30;79.10;;;;;;5025543;28;20420;-88
2023/10/14 13:57:17;;;;;;;;;;;20.30;77.90;;;;;;5023100;28;19919;-88
2023/10/14 13:59:43;;;;;;;;;;;20.10;78.60;;;;;;5023223;28;20442;-88
2023/10/14 14:02:09;;;;;;;;;;;20.00;78.60;;;;;;5052868;28;19913;-88
2023/10/14 14:04:34;;;;;;;;;;;20.00;80.00;;;;;;5023973;28;20305;-87
2023/10/14 14:07:01;;;;;;;;;;;20.00;80.30;;;;;;5022242;28;19927;-85
2023/10/14 14:09:30;;;;;;;;;;;19.90;80.10;;;;;;5021039;28;19913;-86
2023/10/14 14:11:56;;;;;;;;;;;19.80;79.20;;;;;;5019978;28;19913;-85
2023/10/14 14:14:22;;;;;;;;;;;20.00;78.90;;;;;;5025697;28;19919;-85
2023/10/14 14:16:48;;;;;;;;;;;19.70;78.90;;;;;;5023532;28;19920;-86
2023/10/14 14:19:15;;;;;;;;;;;19.50;80.10;;;;;;5014541;28;19913;-87
2023/10/14 14:21:44;;;;;;;;;;;19.40;81.20;;;;;;5013161;28;19917;-86
2023/10/14 14:24:10;;;;;;;;;;;19.50;81.00;;;;;;5025344;28;19917;-87
2023/10/14 14:26:35;;;;;;;;;;;19.90;80.10;;;;;;5025140;28;19920;-89
2023/10/14 14:29:02;;;;;;;;;;;20.10;80.10;;;;;;5025855;28;19913;-86
2023/10/14 14:31:30;;;;;;;;;;;20.20;78.60;;;;;;5025311;28;20032;-88
2023/10/14 14:33:56;;;;;;;;;;;20.30;78.60;;;;;;5025660;28;19963;-88
2023/10/14 14:36:22;;;;;;;;;;;20.00;78.90;;;;;;5023393;28;19921;-87
2023/10/14 14:38:47;;;;;;;;;;;19.70;78.70;;;;;;5023869;28;19913;-87
2023/10/14 14:41:18;;;;;;;;;;;19.60;78.90;;;;;;5022658;28;20435;-89
2023/10/14 14:43:44;;;;;;;;;;;19.30;79.40;;;;;;5025344;28;19921;-86
2023/10/14 14:46:11;;;;;;;;;;;19.20;80.20;;;;;;5022419;28;19913;-89
2023/10/14 14:48:37;;;;;;;;;;;19.30;80.00;;;;;;5024928;28;20448;-88